Tropical Cyclones
[Index]
Main Index Home Page Stock Weather Photos Extreme Storms Discussion Storm News and Storm Chasing Reports Tropical Cyclones / Hurricanes / Typhoons Weather Data and Links Wild Fires / Bushfires Weather Observation Techniques Weather Picture Catalogue Tornado Pictures and Reports Stock Video Footage and DVDs for sale
Season 2005-2006 Tropical Cyclone BOLOETSE Track Map
Season 2005-2006 Summaries: [BoM-AU] [JTWC-AU] [JTWC-SIO] [JTWC-SPAC] [JTWC-SH]
<<- Previous TC | JTWC 2005-2006 Season | Next TC ->>

click for intensity scale information  Lat/long Grid: Show Hide

 Date Labels: Show Hide

Joint Typhoon Warning Centre Cyclone Data

Name: BOLOETSE

22 Jan 2006 12:00 UTC to 06 Feb 2006 06:00 UTC

    date/time    lat    long     hPa   cat  kts
2006-01-22 12   14.6    56.5    1004         20          
2006-01-22 18   15.2    56.1    1004         20          
2006-01-23 00   15.7    55.6    1004         20          
2006-01-23 06   16.2    55.1    1004         20          
2006-01-23 12   16.6    54.5    1004         20          
2006-01-23 18   17.0    53.9    1002         25          
2006-01-24 00   17.4    53.3    1002         25          
2006-01-24 06   17.8    52.7    1002         25          
2006-01-24 12   18.2    52.1    1002         25          
2006-01-24 18   18.5    51.6    1000         30          
2006-01-25 00   18.9    51.2     997         35          
2006-01-25 06   19.5    51.0     991    1    45          
2006-01-25 12   20.3    50.9     991    1    45          
2006-01-25 18   21.1    50.8     991    1    45          
2006-01-26 00   21.9    50.7     991    1    45          
2006-01-26 06   22.5    50.5     994    1    40          
2006-01-26 12   23.0    50.6     997         35          
2006-01-26 18   23.1    50.7     997         35          
2006-01-27 00   22.9    50.8     997         35          
2006-01-27 06   22.6    50.8     997         35          
2006-01-27 12   22.4    50.7     997         35          
2006-01-27 18   22.1    50.4     997         35          
2006-01-28 00   21.9    50.0     997         35          
2006-01-28 06   21.6    49.5     997         35          
2006-01-28 12   21.3    49.2    1000         30          
2006-01-28 18   21.0    48.8    1000         30          
2006-01-29 00   20.7    48.2    1000         30          
2006-01-29 06   20.8    47.3    1002         25          
2006-01-29 12   20.8    46.2    1004         20          
2006-01-29 18   20.3    45.1    1004         20          
2006-01-30 00   19.5    44.2    1002         25          
2006-01-30 06   18.6    43.7    1002         25          
2006-01-30 12   18.1    43.0    1002         25          
2006-01-30 18   18.2    42.2    1000         30          
2006-01-31 00   18.6    41.4    1000         30          
2006-01-31 06   19.1    40.5    1000         30          
2006-01-31 12   19.5    39.7    1000         30          
2006-01-31 18   19.5    39.0     997         35          
2006-02-01 00   19.5    38.6     997         35          
2006-02-01 06   19.4    38.2     997         35          
2006-02-01 12   19.2    38.3     997         35          
2006-02-01 18   19.4    38.4     989    1    45          
2006-02-02 00   19.5    38.6     978    2    60          
2006-02-02 00   19.5    38.6     978    2    60          
2006-02-02 06   19.7    38.5     976    2    65          
2006-02-02 06   19.7    38.5     976    2    65          
2006-02-02 12   19.9    38.7     974    2    65          
2006-02-02 12   19.9    38.7     974    2    65          
2006-02-02 12   19.9    38.7     974    2    65          
2006-02-02 18   20.1    39.0     974    2    65          
2006-02-02 18   20.1    39.0     974    2    65          
2006-02-02 18   20.1    39.0     974    2    65          
2006-02-03 00   20.4    39.3     967    3    75          
2006-02-03 00   20.4    39.3     967    3    75          
2006-02-03 00   20.4    39.3     967    3    75          
2006-02-03 06   20.9    39.9     954    3    90          
2006-02-03 06   20.9    39.9     954    3    90          
2006-02-03 06   20.9    39.9     954    3    90          
2006-02-03 12   21.4    40.8     954    3    90          
2006-02-03 12   21.4    40.8     954    3    90          
2006-02-03 12   21.4    40.8     954    3    90          
2006-02-03 18   22.5    41.8     944    4   100          
2006-02-03 18   22.5    41.8     944    4   100          
2006-02-03 18   22.5    41.8     944    4   100          
2006-02-04 00   23.3    42.2     952    3    95          
2006-02-04 00   23.3    42.2     952    3    95          
2006-02-04 00   23.3    42.2     952    3    95          
2006-02-04 06   24.1    43.0     954    3    90          
2006-02-04 06   24.1    43.0     954    3    90          
2006-02-04 06   24.1    43.0     954    3    90          
2006-02-04 12   25.1    43.7     958    3    85          
2006-02-04 12   25.1    43.7     958    3    85          
2006-02-04 12   25.1    43.7     958    3    85          
2006-02-04 18   26.1    44.5     967    3    75          
2006-02-04 18   26.1    44.5     967    3    75          
2006-02-04 18   26.1    44.5     967    3    75          
2006-02-05 00   27.3    45.3     978    2    60          
2006-02-05 00   27.3    45.3     978    2    60          
2006-02-05 06   28.6    46.4     982    2    55          
2006-02-05 06   28.6    46.4     982    2    55          
2006-02-05 12   30.5    47.7     985    1    50          
2006-02-05 18   32.1    49.7     994    1    40          
2006-02-06 00   33.5    51.9     994    1    40          
2006-02-06 06   35.4    54.2     996         35          
Winds are 1-min average.

Tropical cyclone tracks developed by Michael Bath using data from the Joint Typhoon Warning Centre Best Tracks and Google Maps.


[Australian Severe Weather index] [Copyright Notice] [Email Contacts] [Search This Site] [Privacy Policy]
Document: tropical_cyclone_boloetse.htm Updated: 28 June 2017